Time;durP1;ratioP1;P1;durP2;ratioP2;P2;SDS_P1;SDS_P2;PMS_P1;PMS_P2;Temp;Humidity;BMP_temperature;BMP_pressure;BME280_temperature;BME280_humidity;BME280_pressure;Samples;Min_cycle;Max_cycle;Signal;HPM_P1;HPM_P2
2021/01/30 00:02:31;;;;;;;15.50;8.78;;;;;;;0.08;73.41;99163.06;1834814;77;22175;-64
2021/01/30 00:04:59;;;;;;;24.40;10.38;;;;;;;0.05;73.15;99164.33;1782226;80;21188;-64
2021/01/30 00:07:26;;;;;;;22.82;11.20;;;;;;;0.04;73.22;99169.06;1758258;80;21169;-65
2021/01/30 00:09:54;;;;;;;19.05;9.90;;;;;;;-0.02;73.48;99175.48;1723646;82;21123;-64
2021/01/30 00:12:22;;;;;;;17.82;10.40;;;;;;;0.05;73.27;99180.30;1756071;81;21145;-64
2021/01/30 00:14:53;;;;;;;15.30;8.58;;;;;;;-0.01;72.93;99165.58;1761683;80;21316;-65
2021/01/30 00:17:20;;;;;;;15.90;9.20;;;;;;;-0.07;72.93;99160.33;1717681;82;21579;-65
2021/01/30 00:19:48;;;;;;;14.60;8.50;;;;;;;-0.11;72.89;99155.97;1735680;80;21137;-65
2021/01/30 00:22:18;;;;;;;15.03;8.68;;;;;;;-0.16;73.04;99161.96;1761729;81;21166;-64
2021/01/30 00:24:48;;;;;;;17.30;8.95;;;;;;;-0.14;73.06;99149.47;1723395;81;21320;-65
2021/01/30 00:27:19;;;;;;;17.12;9.48;;;;;;;-0.13;73.17;99148.63;1728210;83;21296;-65
2021/01/30 00:29:47;;;;;;;;;;;;;;;-0.03;73.05;99155.64;1699712;83;21186;-65
2021/01/30 00:32:18;;;;;;;14.87;8.25;;;;;;;-0.03;73.06;99148.73;1688414;84;20175;-64
2021/01/30 00:34:46;;;;;;;16.35;9.18;;;;;;;0.07;73.10;99148.84;1682605;83;21342;-65
2021/01/30 00:37:18;;;;;;;15.25;8.55;;;;;;;0.12;72.88;99151.90;1674585;86;21190;-65
2021/01/30 00:39:46;;;;;;;17.48;9.28;;;;;;;0.12;72.91;99157.52;1699708;84;21207;-63
2021/01/30 00:42:15;;;;;;;16.48;9.30;;;;;;;0.12;72.47;99160.95;1727589;83;21147;-65
2021/01/30 00:44:44;;;;;;;;;;;;;;;0.03;72.69;99167.32;1731505;81;21108;-64
2021/01/30 00:47:12;;;;;;;18.30;9.20;;;;;;;0.04;72.81;99171.64;1697758;84;20437;-64
2021/01/30 00:49:42;;;;;;;18.45;9.58;;;;;;;0.07;72.90;99170.39;1727110;83;21130;-64
2021/01/30 00:52:10;;;;;;;18.75;10.40;;;;;;;0.14;72.85;99160.55;1679642;83;21150;-64
2021/01/30 00:54:38;;;;;;;15.88;8.90;;;;;;;0.20;72.50;99150.70;1707218;83;21312;-65
2021/01/30 00:57:06;;;;;;;17.70;10.30;;;;;;;0.20;72.44;99148.53;1708099;83;21217;-64
2021/01/30 00:59:34;;;;;;;17.50;9.80;;;;;;;0.19;72.57;99145.09;1690543;83;21161;-65
2021/01/30 01:02:03;;;;;;;18.35;10.90;;;;;;;0.24;72.63;99141.23;1691687;84;21156;-64
2021/01/30 01:04:33;;;;;;;19.67;10.03;;;;;;;0.33;72.49;99149.09;1727019;82;21201;-65
2021/01/30 01:07:01;;;;;;;16.90;9.25;;;;;;;0.37;72.35;99144.39;1726660;83;21194;-64
2021/01/30 01:09:29;;;;;;;15.70;8.85;;;;;;;0.34;72.45;99136.59;1715372;82;21279;-64
2021/01/30 01:11:57;;;;;;;16.35;9.23;;;;;;;0.32;72.51;99137.01;1723027;82;21162;-65
2021/01/30 01:18:24;;;;;;;13.22;7.65;;;;;;;0.40;72.25;99123.72;1821051;77;22186;-62
2021/01/30 01:20:51;;;;;;;13.35;7.75;;;;;;;0.32;72.07;99136.12;1746997;81;21631;-62
2021/01/30 01:23:19;;;;;;;12.55;7.35;;;;;;;0.29;72.20;99136.53;1736056;81;21170;-61
2021/01/30 01:25:47;;;;;;;11.70;7.33;;;;;;;0.29;72.36;99131.80;1723836;81;21216;-61
2021/01/30 01:28:16;;;;;;;12.00;7.00;;;;;;;0.27;72.26;99131.77;1761773;81;21158;-64
2021/01/30 01:30:43;;;;;;;11.30;7.37;;;;;;;0.24;72.32;99133.03;1741647;81;21083;-64
2021/01/30 01:33:11;;;;;;;12.33;7.50;;;;;;;0.26;72.35;99130.48;1731591;83;21182;-63
2021/01/30 01:35:40;;;;;;;14.05;7.60;;;;;;;0.21;72.31;99132.15;1731892;81;21701;-63
2021/01/30 01:38:07;;;;;;;12.25;7.35;;;;;;;0.14;72.47;99134.67;1733499;80;21645;-64
2021/01/30 01:40:38;;;;;;;13.43;8.30;;;;;;;0.14;72.71;99133.82;1736282;81;21179;-64
2021/01/30 01:43:16;;;;;;;16.23;8.78;;;;;;;0.18;72.85;99137.30;1749015;81;21563;-63
2021/01/30 01:53:14;;;;;;;14.65;7.85;;;;;;;0.33;73.12;99125.80;1828043;77;22163;-62
2021/01/30 01:55:48;;;;;;;15.55;8.40;;;;;;;0.33;73.25;99133.56;1769306;80;21611;-64
2021/01/30 01:58:16;;;;;;;16.65;8.43;;;;;;;0.36;73.25;99127.13;1758250;81;21729;-63
2021/01/30 02:00:46;;;;;;;13.83;8.23;;;;;;;0.38;73.22;99118.06;1761783;80;21299;-63
2021/01/30 02:03:17;;;;;;;16.25;8.73;;;;;;;0.36;72.96;99110.70;1762040;81;21135;-63
2021/01/30 02:05:45;;;;;;;18.10;9.65;;;;;;;0.27;72.83;99105.89;1761739;80;21131;-64
2021/01/30 02:08:16;;;;;;;20.65;10.48;;;;;;;0.23;72.62;99108.45;1760684;81;21103;-64
2021/01/30 02:10:46;;;;;;;17.00;9.50;;;;;;;0.02;73.08;99100.91;1761720;80;21331;-63
2021/01/30 02:13:19;;;;;;;18.35;10.95;;;;;;;0.03;73.24;99087.56;1762300;81;21634;-64
2021/01/30 02:15:48;;;;;;;19.65;10.23;;;;;;;0.07;72.86;99082.86;1759409;80;21123;-64
2021/01/30 02:18:24;;;;;;;22.00;10.38;;;;;;;0.08;72.71;99079.42;1760104;81;21138;-63
2021/01/30 02:21:33;;;;;;;20.60;10.05;;;;;;;0.05;72.67;99074.22;1756572;80;21292;-64
2021/01/30 02:24:33;;;;;;;17.57;9.58;;;;;;;-0.02;72.84;99075.45;1748197;81;21128;-64
2021/01/30 02:27:37;;;;;;;17.95;8.75;;;;;;;-0.02;73.04;99081.91;1751908;81;21582;-62
2021/01/30 02:30:49;;;;;;;14.55;9.18;;;;;;;0.00;73.26;99088.41;1732006;82;21123;-64
2021/01/30 02:33:26;;;;;;;18.30;8.80;;;;;;;0.06;73.33;99083.27;1752746;81;21155;-62
2021/01/30 02:36:17;;;;;;;17.87;9.33;;;;;;;0.13;73.46;99078.59;1760720;81;21107;-64
2021/01/30 02:39:00;;;;;;;16.40;8.33;;;;;;;0.18;73.58;99081.25;1761823;81;21261;-62
2021/01/30 02:41:31;;;;;;;16.75;9.20;;;;;;;0.22;73.53;99084.27;1749038;80;21320;-64
2021/01/30 02:44:01;;;;;;;20.48;9.20;;;;;;;0.19;73.56;99084.27;1760786;81;21151;-65
2021/01/30 02:46:33;;;;;;;15.65;9.40;;;;;;;0.26;73.59;99074.39;1760813;81;21175;-64
2021/01/30 02:49:06;;;;;;;20.60;10.03;;;;;;;0.29;73.79;99065.80;1762091;81;21170;-63
2021/01/30 02:51:42;;;;;;;20.00;10.60;;;;;;;0.25;74.24;99064.03;1741276;80;21170;-63
2021/01/30 02:54:11;;;;;;;15.23;8.90;;;;;;;0.25;74.39;99070.50;1747955;82;21566;-63
2021/01/30 02:56:39;;;;;;;16.35;8.70;;;;;;;0.36;74.17;99071.47;1748778;81;21164;-62
2021/01/30 02:59:12;;;;;;;18.57;10.08;;;;;;;0.47;73.92;99070.66;1742573;82;21558;-62
2021/01/30 03:01:42;;;;;;;17.10;10.18;;;;;;;0.48;74.14;99074.98;1738998;82;21143;-64
2021/01/30 03:04:18;;;;;;;15.48;9.65;;;;;;;0.52;74.09;99066.39;1747291;81;21292;-64
2021/01/30 03:07:03;;;;;;;15.40;9.00;;;;;;;0.64;73.88;99059.16;1747904;81;21167;-64
2021/01/30 03:09:41;;;;;;;15.55;8.73;;;;;;;0.60;74.03;99067.31;1739433;82;21135;-64
2021/01/30 03:12:26;;;;;;;16.67;10.03;;;;;;;0.57;74.14;99057.81;1748112;81;21153;-64
2021/01/30 03:14:58;;;;;;;12.30;7.95;;;;;;;0.59;74.27;99055.23;1746341;80;21111;-64
2021/01/30 03:17:27;;;;;;;15.23;7.95;;;;;;;0.66;73.94;99041.47;1747592;82;21092;-64
2021/01/30 03:19:55;;;;;;;13.08;7.85;;;;;;;0.66;73.96;99027.66;1748112;82;21171;-63
2021/01/30 03:22:23;;;;;;;15.90;8.85;;;;;;;0.63;74.24;99028.94;1737664;82;21198;-62
2021/01/30 03:24:51;;;;;;;15.50;8.18;;;;;;;0.69;74.08;99031.13;1747172;80;21200;-63
2021/01/30 03:27:31;;;;;;;14.13;8.53;;;;;;;0.72;73.96;99035.03;1711971;82;21183;-64
2021/01/30 03:29:59;;;;;;;13.78;8.05;;;;;;;0.74;73.97;99033.32;1742208;82;21282;-63
2021/01/30 03:32:28;;;;;;;14.53;8.48;;;;;;;0.78;73.97;99035.93;1747045;82;21308;-64
2021/01/30 03:34:59;;;;;;;15.03;7.72;;;;;;;0.70;74.21;99031.56;1747935;80;21159;-63
2021/01/30 03:37:27;;;;;;;13.58;7.45;;;;;;;0.70;74.23;99023.80;1731309;81;21123;-64
2021/01/30 03:39:55;;;;;;;12.25;7.22;;;;;;;0.64;74.04;99019.87;1748081;82;21262;-63
2021/01/30 03:42:22;;;;;;;13.40;7.60;;;;;;;0.62;74.05;99020.29;1747362;81;21135;-63
2021/01/30 03:44:50;;;;;;;15.88;7.35;;;;;;;0.61;74.07;99021.59;1747647;81;21159;-64
2021/01/30 03:47:18;;;;;;;12.58;7.37;;;;;;;0.61;74.02;99022.88;1747566;82;21475;-63
2021/01/30 03:58:11;;;;;;;10.32;6.05;;;;;;;0.67;73.64;99026.37;1853137;77;22174;-61
2021/01/30 04:00:39;;;;;;;11.90;6.60;;;;;;;0.59;73.29;99030.63;1804983;78;21122;-62
2021/01/30 04:03:06;;;;;;;13.32;7.58;;;;;;;0.56;72.94;99035.78;1761809;81;21186;-62
2021/01/30 04:05:34;;;;;;;11.30;6.70;;;;;;;0.50;72.96;99046.09;1770330;79;21161;-61
2021/01/30 04:08:02;;;;;;;11.38;6.95;;;;;;;0.32;73.18;99045.53;1728565;83;21611;-62
2021/01/30 04:10:33;;;;;;;10.23;6.08;;;;;;;0.38;72.96;99042.58;1728475;83;21181;-61
2021/01/30 04:13:09;;;;;;;12.75;6.95;;;;;;;0.27;73.46;99035.16;1758014;81;21280;-64
2021/01/30 04:15:42;;;;;;;11.20;6.67;;;;;;;0.30;73.75;99028.71;1761982;81;21162;-63
2021/01/30 04:18:11;;;;;;;12.30;7.47;;;;;;;0.30;73.97;99020.95;1725568;83;21304;-62
2021/01/30 04:32:28;;;;;;;16.95;8.68;;;;;;;0.38;73.13;99013.22;1823274;77;22186;-63
2021/01/30 04:34:56;;;;;;;15.32;8.88;;;;;;;0.27;73.14;99020.48;1771494;80;21273;-63
2021/01/30 04:37:23;;;;;;;17.00;9.33;;;;;;;0.24;73.30;99019.59;1792409;80;21110;-61
2021/01/30 04:39:51;;;;;;;17.95;10.63;;;;;;;0.24;73.31;99025.63;1772774;80;21176;-63
2021/01/30 04:42:44;;;;;;;20.17;11.65;;;;;;;0.25;73.35;99029.95;1792340;80;21111;-61
2021/01/30 04:45:23;;;;;;;16.65;9.65;;;;;;;0.25;73.27;99020.89;1767386;79;21223;-64
2021/01/30 04:48:02;;;;;;;18.82;10.85;;;;;;;0.42;72.82;99025.34;1792427;80;21080;-63
2021/01/30 04:51:09;;;;;;;16.52;11.15;;;;;;;0.48;72.88;99040.03;1792652;80;21200;-63
2021/01/30 04:53:55;;;;;;;16.70;10.32;;;;;;;0.37;73.36;99035.67;1793477;80;21511;-64
2021/01/30 04:57:00;;;;;;;16.93;10.58;;;;;;;0.39;73.63;99024.90;1791755;80;21132;-64
2021/01/30 04:59:46;;;;;;;14.78;9.28;;;;;;;0.39;73.97;99022.72;1792193;79;21134;-66
2021/01/30 05:02:52;;;;;;;15.60;9.45;;;;;;;0.43;74.28;99014.12;1792559;80;21268;-64
2021/01/30 05:05:22;;;;;;;18.15;9.90;;;;;;;0.50;74.42;99010.73;1792765;80;21139;-64
2021/01/30 05:07:56;;;;;;;15.58;9.90;;;;;;;0.53;74.75;98991.33;1792545;79;21629;-65
2021/01/30 05:10:30;;;;;;;16.73;10.45;;;;;;;0.59;75.01;98991.78;1793044;79;21605;-65
2021/01/30 05:13:19;;;;;;;18.63;11.33;;;;;;;0.68;75.23;98994.43;1793098;80;21554;-66
2021/01/30 05:19:08;;;;;;;18.90;11.08;;;;;;;0.97;75.92;98967.78;1797228;77;22170;-61
2021/01/30 05:21:50;;;;;;;26.37;15.13;;;;;;;1.08;75.91;98980.80;1755366;82;21123;-63
2021/01/30 05:24:17;;;;;;;28.60;15.50;;;;;;;1.17;76.02;98989.89;1756019;81;21162;-63
2021/01/30 05:27:30;;;;;;;26.20;15.45;;;;;;;1.26;75.93;98995.55;1754134;81;21103;-61
2021/01/30 05:30:38;;;;;;;31.80;18.30;;;;;;;1.34;75.87;98993.83;1755898;82;21147;-65
2021/01/30 05:33:41;;;;;;;30.00;15.90;;;;;;;1.55;75.43;99001.23;1725954;83;21186;-64
2021/01/30 05:36:16;;;;;;;28.38;16.60;;;;;;;1.72;75.07;98997.82;1736802;82;21541;-62
2021/01/30 05:39:20;;;;;;;27.55;15.95;;;;;;;1.81;75.01;99008.18;1743799;82;21162;-62
2021/01/30 05:42:22;;;;;;;27.80;16.27;;;;;;;1.83;75.22;99006.45;1753764;82;21111;-62
2021/01/30 05:45:02;;;;;;;33.35;17.65;;;;;;;1.90;75.60;99013.39;1752442;81;21119;-62
2021/01/30 05:47:31;;;;;;;28.90;16.40;;;;;;;2.03;75.79;99017.30;1756177;81;21313;-61
2021/01/30 05:50:17;;;;;;;27.32;16.25;;;;;;;2.10;75.85;99026.83;1727123;82;21597;-61
2021/01/30 05:52:44;;;;;;;29.02;16.87;;;;;;;2.21;75.72;99023.77;1755202;82;21534;-63
2021/01/30 05:55:35;;;;;;;27.58;16.25;;;;;;;2.34;75.47;99021.18;1752100;81;21184;-61
2021/01/30 05:58:09;;;;;;;25.05;16.97;;;;;;;2.38;75.50;99025.51;1747475;82;21103;-61
2021/01/30 06:00:37;;;;;;;26.60;16.05;;;;;;;2.44;75.46;99025.51;1756088;82;21155;-63
2021/01/30 06:03:17;;;;;;;24.92;14.98;;;;;;;2.51;75.40;99024.64;1754140;81;21141;-61
2021/01/30 06:05:49;;;;;;;26.17;14.63;;;;;;;2.60;75.35;99031.55;1756253;82;21208;-61
2021/01/30 06:08:30;;;;;;;21.68;13.28;;;;;;;2.65;75.47;99031.11;1755849;81;21107;-61
2021/01/30 06:11:10;;;;;;;25.85;14.23;;;;;;;2.76;75.49;99025.87;1756167;82;21754;-64
2021/01/30 06:13:53;;;;;;;25.82;15.20;;;;;;;2.90;75.51;99024.98;1748007;82;21146;-61
2021/01/30 06:16:45;;;;;;;26.25;16.00;;;;;;;2.97;75.44;99021.05;1755475;82;21155;-65
2021/01/30 06:19:21;;;;;;;25.90;15.60;;;;;;;3.00;75.48;99002.42;1743298;81;21183;-61
2021/01/30 06:22:12;;;;;;;26.62;16.35;;;;;;;2.98;75.68;99001.14;1736305;82;21543;-65
2021/01/30 06:24:46;;;;;;;27.98;16.77;;;;;;;3.05;75.69;99001.55;1721883;82;21172;-60
2021/01/30 06:27:38;;;;;;;28.80;18.48;;;;;;;3.13;75.78;99001.06;1725388;82;21296;-60
2021/01/30 06:30:13;;;;;;;23.83;14.47;;;;;;;3.19;76.02;98994.98;1730683;82;21181;-61
2021/01/30 06:32:48;;;;;;;27.42;17.48;;;;;;;3.26;76.13;98991.91;1731582;82;22416;-64
2021/01/30 06:35:23;;;;;;;23.40;15.30;;;;;;;3.31;76.27;98987.55;1723705;82;21175;-65
2021/01/30 06:37:57;;;;;;;26.68;15.75;;;;;;;3.38;76.24;98981.45;1717394;83;21175;-64
2021/01/30 06:40:39;;;;;;;26.20;16.45;;;;;;;3.46;76.32;98984.45;1731705;82;21163;-60
2021/01/30 06:43:14;;;;;;;27.15;16.85;;;;;;;3.50;76.40;98977.91;1739143;82;21186;-64
2021/01/30 06:45:44;;;;;;;25.40;15.03;;;;;;;3.56;76.49;98967.89;1742089;82;21159;-60
2021/01/30 06:48:39;;;;;;;26.15;16.05;;;;;;;3.61;76.49;98971.33;1741225;82;21575;-60
2021/01/30 06:51:31;;;;;;;24.77;16.25;;;;;;;3.68;76.39;98956.11;1742239;82;21140;-64
2021/01/30 06:54:25;;;;;;;24.67;14.63;;;;;;;3.69;76.44;98947.42;1742060;82;21195;-64
2021/01/30 06:57:21;;;;;;;27.55;16.60;;;;;;;3.72;76.38;98943.50;1739970;82;21139;-61
2021/01/30 07:00:00;;;;;;;33.60;20.30;;;;;;;3.76;76.46;98932.62;1718455;82;21305;-64
2021/01/30 07:02:38;;;;;;;28.80;16.15;;;;;;;3.80;76.56;98934.78;1736657;82;21147;-65
2021/01/30 07:05:17;;;;;;;25.97;16.23;;;;;;;3.83;76.54;98930.85;1742044;82;21199;-65
2021/01/30 07:08:08;;;;;;;28.40;18.40;;;;;;;3.89;76.49;98923.00;1740272;82;21277;-64
2021/01/30 07:11:04;;;;;;;31.55;19.23;;;;;;;3.93;76.50;98927.30;1676241;85;21194;-65
2021/01/30 07:14:23;;;;;;;31.62;18.50;;;;;;;4.02;76.42;98923.74;1718820;82;21143;-60
2021/01/30 07:16:56;;;;;;;31.35;19.23;;;;;;;4.06;76.34;98925.87;1721997;82;21135;-65
2021/01/30 07:19:38;;;;;;;32.53;19.52;;;;;;;4.05;76.33;98930.23;1730293;82;21531;-65
2021/01/30 07:22:14;;;;;;;30.90;20.15;;;;;;;4.12;76.25;98925.81;1724802;82;21147;-65
2021/01/30 07:24:53;;;;;;;25.92;16.87;;;;;;;4.12;76.24;98926.70;1727500;82;21170;-66
2021/01/30 07:27:47;;;;;;;27.55;17.80;;;;;;;4.12;76.31;98928.00;1726097;82;21151;-65
2021/01/30 07:30:21;;;;;;;30.08;18.95;;;;;;;4.20;76.37;98927.03;1724088;82;21559;-60
2021/01/30 07:33:12;;;;;;;33.55;20.77;;;;;;;4.24;76.62;98927.01;1722726;82;21099;-65
2021/01/30 07:35:42;;;;;;;;;;;;;;;4.28;76.64;98933.04;1731110;82;21123;-65
2021/01/30 07:38:23;;;;;;;30.17;18.80;;;;;;;4.35;76.58;98925.59;1724504;82;20178;-64
2021/01/30 07:40:58;;;;;;;25.92;17.02;;;;;;;4.38;76.56;98920.81;1731150;82;21590;-60
2021/01/30 07:43:46;;;;;;;30.05;18.65;;;;;;;4.43;76.74;98919.86;1740530;82;21289;-60
2021/01/30 07:46:24;;;;;;;27.67;17.92;;;;;;;4.54;76.83;98914.98;1736794;82;21111;-64
2021/01/30 07:48:58;;;;;;;30.08;18.12;;;;;;;4.58;76.87;98912.77;1707774;82;21186;-65
2021/01/30 07:52:01;;;;;;;25.40;16.97;;;;;;;4.62;76.87;98914.46;1683381;85;21194;-65
2021/01/30 07:54:30;;;;;;;33.15;18.77;;;;;;;4.64;76.85;98907.46;1736511;82;21174;-64
2021/01/30 07:57:26;;;;;;;28.67;18.37;;;;;;;4.65;76.73;98907.03;1741326;82;21143;-62
2021/01/30 08:00:02;;;;;;;27.17;17.75;;;;;;;4.69;76.33;98905.66;1718766;82;21347;-61
2021/01/30 08:02:54;;;;;;;31.07;20.62;;;;;;;4.69;76.39;98907.42;1737808;82;21138;-65
2021/01/30 08:06:06;;;;;;;31.75;19.02;;;;;;;4.70;76.39;98905.24;1732724;82;21350;-65
2021/01/30 08:08:51;;;;;;;29.12;19.80;;;;;;;4.78;76.31;98909.05;1711293;82;21167;-64
2021/01/30 08:11:55;;;;;;;30.37;20.23;;;;;;;4.83;76.37;98909.43;1710617;84;21189;-65
2021/01/30 08:14:55;;;;;;;32.88;19.98;;;;;;;4.86;76.31;98903.30;1724554;82;21158;-62
2021/01/30 08:17:49;;;;;;;26.75;17.40;;;;;;;4.89;76.31;98897.59;1733335;82;21261;-61
2021/01/30 08:20:26;;;;;;;33.90;21.00;;;;;;;4.92;76.00;98894.10;1733621;82;21181;-66
2021/01/30 08:23:03;;;;;;;32.35;22.42;;;;;;;4.91;76.08;98891.07;1741550;82;21123;-64
2021/01/30 08:25:57;;;;;;;31.68;21.42;;;;;;;4.83;76.39;98889.88;1740839;82;21178;-66
2021/01/30 08:28:41;;;;;;;31.42;20.15;;;;;;;4.84;76.62;98890.30;1728398;82;21197;-66
2021/01/30 08:31:34;;;;;;;32.73;21.65;;;;;;;4.86;76.89;98887.20;1712597;84;21588;-62
2021/01/30 08:34:23;;;;;;;28.52;20.40;;;;;;;4.87;76.83;98880.26;1730809;82;21182;-67
2021/01/30 08:36:57;;;;;;;31.42;20.62;;;;;;;4.81;77.14;98889.03;1740695;82;21183;-60
2021/01/30 08:39:34;;;;;;;36.23;22.87;;;;;;;4.89;76.87;98882.41;1742147;82;21741;-60
2021/01/30 08:42:19;;;;;;;40.98;26.00;;;;;;;4.90;76.69;98880.22;1742282;82;21147;-61
2021/01/30 08:45:07;;;;;;;38.75;24.35;;;;;;;4.90;76.71;98868.48;1733189;82;21146;-61
2021/01/30 08:47:38;;;;;;;31.95;20.85;;;;;;;4.97;76.46;98858.40;1742033;82;21120;-61
2021/01/30 08:50:17;;;;;;;31.80;19.60;;;;;;;5.02;76.37;98858.33;1736277;82;21184;-68
2021/01/30 08:52:53;;;;;;;32.55;21.00;;;;;;;5.04;76.27;98856.13;1739061;82;21152;-61
2021/01/30 08:55:45;;;;;;;32.42;21.25;;;;;;;5.04;76.33;98849.61;1741130;82;21135;-62
2021/01/30 08:58:38;;;;;;;31.87;20.68;;;;;;;5.06;76.34;98854.79;1742259;82;21139;-69
2021/01/30 09:01:30;;;;;;;33.05;20.62;;;;;;;5.05;76.16;98846.55;1741905;82;21186;-68
2021/01/30 09:04:00;;;;;;;33.35;20.72;;;;;;;4.98;76.52;98846.20;1740999;82;21124;-64
2021/01/30 09:06:51;;;;;;;32.50;20.57;;;;;;;4.98;76.62;98842.30;1741922;82;21139;-67
2021/01/30 09:09:22;;;;;;;31.87;21.27;;;;;;;4.99;76.54;98837.50;1740386;82;21150;-63
2021/01/30 09:11:59;;;;;;;33.67;23.32;;;;;;;5.00;76.73;98838.80;1719692;82;21173;-64
2021/01/30 09:14:31;;;;;;;32.90;22.02;;;;;;;5.13;76.45;98841.20;1708582;82;21154;-64
2021/01/30 09:17:08;;;;;;;32.65;22.05;;;;;;;5.13;76.58;98829.47;1683205;85;21293;-64
2021/01/30 09:19:50;;;;;;;34.38;21.55;;;;;;;5.13;76.68;98831.66;1718615;82;21580;-68
2021/01/30 09:22:53;;;;;;;32.13;22.25;;;;;;;5.15;76.76;98826.41;1737916;82;21596;-69
2021/01/30 09:26:03;;;;;;;30.77;20.43;;;;;;;5.18;76.60;98822.02;1718541;83;21679;-66
2021/01/30 09:28:31;;;;;;;38.40;23.07;;;;;;;5.21;76.59;98815.45;1702933;83;21549;-70
2021/01/30 09:31:06;;;;;;;29.05;19.98;;;;;;;5.25;76.68;98814.95;1719800;82;21221;-66
2021/01/30 09:33:38;;;;;;;30.85;20.48;;;;;;;5.25;76.75;98811.49;1727719;82;21182;-71
2021/01/30 09:36:17;;;;;;;33.78;21.55;;;;;;;5.27;76.72;98815.78;1719735;82;21154;-65
2021/01/30 09:38:49;;;;;;;34.45;21.75;;;;;;;5.31;76.74;98810.94;1736443;82;21139;-64
2021/01/30 09:41:23;;;;;;;36.03;23.95;;;;;;;5.42;76.45;98813.37;1725860;82;21187;-64
2021/01/30 09:44:19;;;;;;;36.30;23.27;;;;;;;5.45;76.48;98809.41;1720741;83;21297;-71
2021/01/30 09:47:17;;;;;;;36.23;23.92;;;;;;;5.46;76.38;98805.91;1734162;82;21119;-65
2021/01/30 09:49:49;;;;;;;34.20;23.42;;;;;;;5.49;76.63;98809.77;1728000;83;21315;-65
2021/01/30 09:52:18;;;;;;;37.55;23.42;;;;;;;5.56;76.84;98801.38;1721472;82;21390;-65
2021/01/30 09:54:48;;;;;;;40.50;25.23;;;;;;;5.67;77.09;98789.48;1708667;83;21625;-65
2021/01/30 09:57:24;;;;;;;37.55;25.82;;;;;;;5.76;77.13;98791.05;1690185;82;21165;-72
2021/01/30 10:00:00;;;;;;;41.42;25.60;;;;;;;5.83;77.05;98793.09;1715641;83;21201;-66
2021/01/30 10:02:30;;;;;;;39.63;25.55;;;;;;;5.90;76.94;98790.79;1736522;82;21572;-71
2021/01/30 10:05:13;;;;;;;40.45;25.77;;;;;;;5.93;76.88;98790.73;1720370;83;21149;-64
2021/01/30 10:07:41;;;;;;;35.13;23.73;;;;;;;5.96;76.82;98794.14;1720761;83;21540;-66
2021/01/30 10:10:31;;;;;;;33.35;23.95;;;;;;;5.99;76.84;98794.54;1721992;83;21181;-65
2021/01/30 10:13:00;;;;;;;43.10;30.88;;;;;;;6.07;76.75;98786.58;1722005;83;21189;-63
2021/01/30 10:15:33;;;;;;;42.48;27.73;;;;;;;6.12;76.67;98787.35;1715947;83;21162;-71
2021/01/30 10:18:09;;;;;;;39.27;25.97;;;;;;;6.27;77.13;98793.17;1721827;83;21189;-72
2021/01/30 10:21:01;;;;;;;34.48;23.90;;;;;;;6.39;76.44;98789.02;1727373;82;21308;-63
2021/01/30 10:23:40;;;;;;;36.75;24.43;;;;;;;6.39;76.13;98783.33;1717599;83;21163;-71
2021/01/30 10:26:22;;;;;;;34.88;21.65;;;;;;;6.33;76.10;98778.22;1693525;83;21190;-64
2021/01/30 10:28:57;;;;;;;29.30;20.32;;;;;;;6.30;76.07;98780.89;1721724;83;21283;-63
2021/01/30 10:31:33;;;;;;;31.95;21.52;;;;;;;6.32;75.88;98771.73;1720579;83;21153;-66
2021/01/30 10:34:20;;;;;;;35.35;22.67;;;;;;;;;;1717522;83;21169;-65
2021/01/30 10:36:58;;;;;;;30.57;21.25;;;;;;;6.25;75.94;98778.81;1716859;83;21189;-71
2021/01/30 10:39:26;;;;;;;32.67;22.32;;;;;;;6.25;76.03;98775.78;1673357;86;21192;-64
2021/01/30 10:41:58;;;;;;;28.35;20.00;;;;;;;6.22;76.13;98771.91;1705091;83;21145;-70
2021/01/30 10:44:28;;;;;;;25.35;16.70;;;;;;;6.25;76.05;98766.63;1692303;83;21295;-70
2021/01/30 10:47:01;;;;;;;24.18;16.67;;;;;;;6.29;76.03;98767.88;1722477;82;21145;-70
2021/01/30 10:49:36;;;;;;;21.57;15.88;;;;;;;6.34;75.96;98763.42;1666695;84;21175;-65
2021/01/30 10:52:24;;;;;;;27.77;16.85;;;;;;;6.29;76.24;98756.96;1710150;84;21287;-70
2021/01/30 10:54:53;;;;;;;23.30;16.27;;;;;;;6.38;75.98;98755.93;1692362;84;21142;-69
2021/01/30 10:57:25;;;;;;;24.90;18.25;;;;;;;6.40;75.95;98760.67;1712024;84;21170;-67
2021/01/30 11:00:02;;;;;;;27.20;20.20;;;;;;;6.42;76.05;98760.17;1710471;84;21161;-66
2021/01/30 11:02:46;;;;;;;25.82;17.45;;;;;;;6.48;76.12;98754.81;1716025;83;21257;-66
2021/01/30 11:05:25;;;;;;;27.98;18.55;;;;;;;6.53;76.04;98754.73;1647826;85;21182;-67
2021/01/30 11:08:01;;;;;;;29.50;20.95;;;;;;;6.55;75.91;98756.87;1670949;84;21157;-67
2021/01/30 11:13:25;;;;;;;27.52;18.00;;;;;;;6.62;76.03;98747.12;1813434;77;22147;-66
2021/01/30 11:16:19;;;;;;;24.40;14.98;;;;;;;6.63;76.11;98745.77;1761902;80;21138;-68
2021/01/30 11:18:50;;;;;;;23.42;15.03;;;;;;;6.68;76.14;98743.91;1780284;80;21127;-68
2021/01/30 11:21:36;;;;;;;21.10;13.53;;;;;;;6.76;76.19;98748.98;1790196;80;21639;-69
2021/01/30 11:24:29;;;;;;;19.17;11.97;;;;;;;6.81;76.12;98736.67;1792413;80;21115;-66
2021/01/30 11:26:58;;;;;;;16.75;10.20;;;;;;;6.85;76.17;98730.45;1781810;80;21223;-68
2021/01/30 11:29:41;;;;;;;16.23;10.38;;;;;;;6.92;76.15;98726.38;1762030;80;21169;-68
2021/01/30 11:32:15;;;;;;;14.35;9.00;;;;;;;6.94;76.20;98726.78;1762034;81;21550;-68
2021/01/30 11:34:45;;;;;;;22.15;10.95;;;;;;;6.96;76.06;98734.14;1743894;81;21175;-66
2021/01/30 11:37:14;;;;;;;21.90;12.88;;;;;;;6.97;75.99;98722.78;1698229;83;21178;-67
2021/01/30 11:39:43;;;;;;;28.55;14.33;;;;;;;6.97;75.97;98724.09;1731219;83;21228;-67
2021/01/30 11:42:12;;;;;;;25.35;13.18;;;;;;;6.96;75.81;98724.11;1742837;82;21154;-66
2021/01/30 11:44:40;;;;;;;20.05;12.00;;;;;;;6.92;75.67;98724.64;1724681;82;21763;-65
2021/01/30 11:47:08;;;;;;;21.60;12.43;;;;;;;6.87;75.60;98721.27;1721843;82;21135;-67
2021/01/30 11:49:44;;;;;;;22.60;16.75;;;;;;;6.80;75.53;98705.31;1829994;77;28098;-64
2021/01/30 11:52:21;;;;;;;20.30;12.78;;;;;;;6.75;75.00;98706.73;1793272;80;21308;-64
2021/01/30 11:54:49;;;;;;;44.00;22.40;;;;;;;6.79;75.57;98714.05;1783578;79;21301;-65
2021/01/30 11:57:17;;;;;;;43.55;22.42;;;;;;;6.70;75.82;98714.67;1748454;81;21138;-64
2021/01/30 11:59:45;;;;;;;35.55;19.15;;;;;;;6.67;75.93;98711.28;1746017;82;21592;-64
2021/01/30 12:02:20;;;;;;;33.80;18.57;;;;;;;6.66;75.92;98711.72;1720232;83;21140;-63
2021/01/30 12:04:48;;;;;;;17.82;11.90;;;;;;;6.65;75.97;98716.99;1716246;81;21185;-67
2021/01/30 12:07:16;;;;;;;17.05;8.95;;;;;;;6.63;76.19;98717.02;1728269;83;21185;-64
2021/01/30 12:09:45;;;;;;;13.75;8.38;;;;;;;6.65;76.20;98716.99;1702599;84;21181;-63
2021/01/30 12:12:13;;;;;;;16.10;10.65;;;;;;;6.57;76.70;98725.02;1734641;80;21611;-67
2021/01/30 12:14:40;;;;;;;20.97;9.25;;;;;;;6.66;76.39;98727.41;1753382;81;21287;-64
2021/01/30 12:17:14;;;;;;;16.32;8.85;;;;;;;6.61;76.41;98726.67;1712244;84;21138;-67
2021/01/30 12:19:42;;;;;;;17.75;9.45;;;;;;;6.67;76.19;98712.13;1730686;83;21581;-63
2021/01/30 12:22:10;;;;;;;18.37;9.45;;;;;;;6.77;75.92;98728.48;1752582;80;21123;-68
2021/01/30 12:24:37;;;;;;;17.67;9.10;;;;;;;6.77;75.88;98720.64;1751185;82;21614;-67
2021/01/30 12:27:05;;;;;;;19.32;11.38;;;;;;;6.79;75.72;98725.39;1750807;82;21175;-68
2021/01/30 12:29:33;;;;;;;22.62;12.05;;;;;;;6.73;75.84;98715.50;1751108;82;21209;-68
2021/01/30 12:32:00;;;;;;;13.62;8.03;;;;;;;6.69;76.08;98709.49;1735774;80;21491;-68
2021/01/30 12:34:29;;;;;;;22.05;10.40;;;;;;;6.62;76.40;98707.48;1724927;83;21194;-62
2021/01/30 12:36:57;;;;;;;16.70;8.58;;;;;;;6.67;76.32;98703.44;1734269;81;21177;-62
2021/01/30 12:39:25;;;;;;;15.78;9.25;;;;;;;6.54;76.41;98699.80;1757351;80;21158;-68
2021/01/30 12:41:53;;;;;;;15.18;8.80;;;;;;;6.47;77.06;98703.90;1743059;81;21260;-68
2021/01/30 12:44:23;;;;;;;17.05;10.00;;;;;;;6.49;77.32;98700.34;1741323;81;21150;-68
2021/01/30 12:46:51;;;;;;;21.62;12.13;;;;;;;6.52;77.21;98699.43;1740556;82;21301;-63
2021/01/30 12:49:19;;;;;;;19.82;12.98;;;;;;;6.63;76.62;98706.55;1712352;82;21134;-63
2021/01/30 12:51:47;;;;;;;21.55;12.75;;;;;;;6.66;76.43;98710.88;1767238;81;21600;-63
2021/01/30 12:54:19;;;;;;;17.55;10.45;;;;;;;6.68;76.33;98702.55;1773271;80;21598;-63